Time;durP1;ratioP1;P1;durP2;ratioP2;P2;SDS_P1;SDS_P2;PMS_P1;PMS_P2;Temp;Humidity;BMP_temperature;BMP_pressure;BME280_temperature;BME280_humidity;BME280_pressure;Samples;Min_cycle;Max_cycle;Signal;HPM_P1;HPM_P2
2022/01/17 00:01:12;;;;;;;14.10;8.52;;;5.50;99.90;;;;;;5115155;28;20028;-87
2022/01/17 00:03:37;;;;;;;13.70;8.48;;;5.50;99.90;;;;;;5108483;28;20154;-86
2022/01/17 00:06:13;;;;;;;13.65;8.70;;;5.60;99.90;;;;;;5106837;28;20106;-86
2022/01/17 00:08:42;;;;;;;10.90;7.68;;;5.50;99.90;;;;;;5096838;28;20031;-86
2022/01/17 00:11:09;;;;;;;10.40;7.13;;;5.50;99.90;;;;;;5108775;28;20463;-86
2022/01/17 00:14:08;;;;;;;12.55;7.35;;;5.50;99.90;;;;;;5113002;28;20546;-85
2022/01/17 00:16:41;;;;;;;9.82;6.82;;;5.50;99.90;;;;;;5114445;28;20015;-86
2022/01/17 00:21:52;;;;;;;8.90;5.95;;;5.50;99.90;;;;;;5079856;28;20518;-86
2022/01/17 00:24:21;;;;;;;9.90;6.45;;;5.60;99.90;;;;;;5076356;28;20070;-86
2022/01/17 00:26:47;;;;;;;13.00;6.80;;;5.60;99.90;;;;;;5097237;28;20375;-85
2022/01/17 00:29:18;;;;;;;10.05;6.30;;;5.50;99.90;;;;;;5102035;28;20020;-86
2022/01/17 00:31:52;;;;;;;7.20;5.28;;;5.60;99.90;;;;;;5095976;28;20077;-85
2022/01/17 00:34:17;;;;;;;8.85;5.32;;;5.60;99.90;;;;;;5114486;28;20428;-85
2022/01/17 00:36:43;;;;;;;7.57;5.05;;;5.60;99.90;;;;;;5114743;28;20103;-85
2022/01/17 00:39:09;;;;;;;7.45;5.40;;;5.60;99.90;;;;;;5096456;28;20031;-85
2022/01/17 00:41:35;;;;;;;10.68;4.70;;;5.70;99.90;;;;;;5113968;28;20034;-86
2022/01/17 00:44:01;;;;;;;7.25;3.85;;;5.70;99.90;;;;;;5094469;28;20032;-85
2022/01/17 00:46:27;;;;;;;6.97;4.47;;;5.70;99.90;;;;;;5093718;28;20024;-85
2022/01/17 00:48:53;;;;;;;5.60;4.18;;;5.80;99.90;;;;;;5094109;28;20375;-85
2022/01/17 00:51:19;;;;;;;6.00;3.55;;;5.80;99.90;;;;;;5075766;28;20016;-85
2022/01/17 00:53:51;;;;;;;7.55;3.40;;;5.80;99.90;;;;;;5093910;28;20107;-85
2022/01/17 00:56:20;;;;;;;8.93;3.28;;;5.80;99.90;;;;;;5099874;28;20024;-85
2022/01/17 00:58:45;;;;;;;4.82;3.03;;;5.90;99.90;;;;;;5094806;28;20479;-86
2022/01/17 01:01:14;;;;;;;4.90;2.83;;;5.90;99.90;;;;;;5074494;28;20031;-85
2022/01/17 01:03:40;;;;;;;7.32;3.15;;;5.90;99.90;;;;;;5093621;28;20024;-85
2022/01/17 01:06:05;;;;;;;6.90;3.53;;;6.00;99.90;;;;;;5109653;28;20215;-86
2022/01/17 01:08:34;;;;;;;3.72;2.25;;;6.00;99.90;;;;;;5078975;28;20437;-85
2022/01/17 01:11:00;;;;;;;7.78;2.88;;;6.00;99.90;;;;;;5093660;28;20432;-86
2022/01/17 01:13:28;;;;;;;6.13;2.92;;;6.00;99.90;;;;;;5093925;28;20063;-86
2022/01/17 01:29:33;;;;;;;5.68;2.22;;;6.20;99.90;;;;;;5101756;28;20042;-86
2022/01/17 01:32:04;;;;;;;5.85;2.13;;;6.20;99.90;;;;;;5101139;28;20051;-85
2022/01/17 01:34:36;;;;;;;5.63;2.28;;;6.20;99.90;;;;;;5113522;28;20024;-86
2022/01/17 01:37:03;;;;;;;8.88;2.58;;;6.20;99.90;;;;;;5113117;28;20016;-87
2022/01/17 01:39:41;;;;;;;4.55;2.47;;;6.20;99.90;;;;;;5113480;28;20028;-85
2022/01/17 01:42:17;;;;;;;5.88;2.47;;;6.20;99.90;;;;;;5112986;28;20099;-86
2022/01/17 01:44:42;;;;;;;6.88;2.47;;;6.20;99.90;;;;;;5113425;28;20028;-85
2022/01/17 01:47:11;;;;;;;5.30;2.67;;;6.30;99.90;;;;;;5113002;28;20038;-85
2022/01/17 01:49:36;;;;;;;5.88;2.00;;;6.30;99.90;;;;;;5078697;28;20024;-86
2022/01/17 01:52:11;;;;;;;6.18;2.28;;;6.30;99.90;;;;;;5092851;28;20085;-85
2022/01/17 01:54:37;;;;;;;5.43;3.13;;;6.40;99.90;;;;;;5093084;28;20052;-86
2022/01/17 01:57:03;;;;;;;5.05;2.55;;;6.40;99.90;;;;;;5099429;28;20019;-84
2022/01/17 01:59:30;;;;;;;9.27;3.50;;;6.40;99.90;;;;;;5095118;28;20114;-85
2022/01/17 02:01:56;;;;;;;8.52;3.42;;;6.40;99.90;;;;;;5096005;28;20499;-85
2022/01/17 02:04:22;;;;;;;9.07;3.20;;;6.30;99.90;;;;;;5092669;28;20024;-85
2022/01/17 02:06:47;;;;;;;13.95;3.63;;;6.40;99.90;;;;;;5092861;28;20035;-85
2022/01/17 02:09:13;;;;;;;11.60;3.13;;;6.40;99.90;;;;;;5092723;28;20036;-86
2022/01/17 02:11:41;;;;;;;11.20;4.22;;;6.40;99.90;;;;;;5074469;28;20471;-86
2022/01/17 02:14:06;;;;;;;10.07;3.67;;;6.40;99.90;;;;;;5099050;28;20020;-86
2022/01/17 02:16:32;;;;;;;9.50;3.00;;;6.40;99.90;;;;;;5081057;28;20050;-85
2022/01/17 02:18:58;;;;;;;6.95;3.80;;;6.40;99.90;;;;;;5106788;28;20494;-86
2022/01/17 02:24:08;;;;;;;8.27;3.70;;;6.40;99.90;;;;;;5106825;28;20027;-86
2022/01/17 02:26:43;;;;;;;5.60;3.22;;;6.40;99.90;;;;;;5096199;28;20468;-86
2022/01/17 02:29:09;;;;;;;9.18;3.88;;;6.30;99.90;;;;;;5099264;28;20024;-87
2022/01/17 02:31:36;;;;;;;5.45;3.30;;;6.40;99.90;;;;;;5083586;28;20055;-85
2022/01/17 02:34:03;;;;;;;10.20;3.38;;;6.40;99.90;;;;;;5099614;28;20461;-86
2022/01/17 02:36:37;;;;;;;8.57;4.32;;;6.30;99.90;;;;;;5106698;28;20020;-85
2022/01/17 02:39:03;;;;;;;7.50;4.10;;;6.40;99.90;;;;;;5114173;28;20382;-85
2022/01/17 02:41:31;;;;;;;6.38;3.65;;;6.40;99.90;;;;;;5106246;28;20008;-86
2022/01/17 02:44:01;;;;;;;8.65;4.38;;;6.40;99.90;;;;;;5081141;28;20027;-86
2022/01/17 02:46:27;;;;;;;5.35;3.00;;;6.40;99.90;;;;;;5100493;28;20066;-85
2022/01/17 02:48:55;;;;;;;5.57;3.67;;;6.50;99.90;;;;;;5119326;28;20028;-86
2022/01/17 02:51:30;;;;;;;8.73;3.08;;;6.40;99.90;;;;;;5119385;28;20536;-86
2022/01/17 02:53:56;;;;;;;9.02;3.15;;;6.40;99.90;;;;;;5119574;28;20375;-86
2022/01/17 02:56:23;;;;;;;4.90;3.03;;;6.40;99.90;;;;;;5083693;28;20038;-87
2022/01/17 02:58:51;;;;;;;5.85;3.22;;;6.30;99.90;;;;;;5099197;28;20056;-86
2022/01/17 03:01:21;;;;;;;5.47;3.47;;;6.40;99.90;;;;;;5114745;28;20073;-86
2022/01/17 03:03:47;;;;;;;5.45;3.47;;;6.40;99.90;;;;;;5105861;28;20037;-85
2022/01/17 03:06:15;;;;;;;4.20;2.45;;;6.30;99.90;;;;;;5119482;28;20019;-86
2022/01/17 03:08:42;;;;;;;3.63;2.60;;;6.40;99.90;;;;;;5100949;28;20449;-85
2022/01/17 03:11:12;;;;;;;2.78;2.33;;;6.40;99.90;;;;;;5119087;28;20099;-86
2022/01/17 03:13:43;;;;;;;7.45;2.47;;;6.40;99.90;;;;;;5117145;28;20024;-85
2022/01/17 03:16:15;;;;;;;4.05;2.38;;;6.40;99.90;;;;;;5113005;28;20094;-84
2022/01/17 03:18:50;;;;;;;5.32;2.35;;;6.40;99.90;;;;;;5119380;28;20028;-86
2022/01/17 03:21:17;;;;;;;6.80;2.20;;;6.30;99.90;;;;;;5119151;28;20123;-85
2022/01/17 03:23:45;;;;;;;5.10;2.35;;;6.30;99.90;;;;;;5098151;28;20476;-85
2022/01/17 03:26:18;;;;;;;3.95;2.00;;;6.30;99.90;;;;;;5097327;28;20360;-85
2022/01/17 03:28:43;;;;;;;4.97;2.30;;;6.30;99.90;;;;;;5094351;28;20103;-86
2022/01/17 03:31:10;;;;;;;4.65;2.15;;;6.30;99.90;;;;;;5095433;28;20108;-86
2022/01/17 03:33:42;;;;;;;2.58;1.90;;;6.30;99.90;;;;;;5115370;28;20032;-85
2022/01/17 03:36:08;;;;;;;4.07;2.17;;;6.30;99.90;;;;;;5116037;28;20019;-86
2022/01/17 03:38:34;;;;;;;7.00;2.33;;;6.30;99.90;;;;;;5107446;28;20027;-86
2022/01/17 03:41:14;;;;;;;8.68;2.63;;;6.30;99.90;;;;;;5095409;28;20027;-86
2022/01/17 03:43:40;;;;;;;7.97;3.00;;;6.30;99.90;;;;;;5098400;28;20024;-86
2022/01/17 03:46:06;;;;;;;7.63;2.65;;;6.30;99.90;;;;;;5109308;28;20411;-85
2022/01/17 03:48:33;;;;;;;5.25;2.95;;;6.30;99.90;;;;;;5113845;28;20380;-85
2022/01/17 03:51:00;;;;;;;7.57;2.80;;;6.20;99.90;;;;;;5110446;28;20012;-86
2022/01/17 03:53:27;;;;;;;8.35;2.28;;;6.30;99.90;;;;;;5076948;28;20020;-86
2022/01/17 03:56:19;;;;;;;8.77;2.70;;;6.30;99.90;;;;;;5095145;28;20030;-86
2022/01/17 03:58:46;;;;;;;14.15;2.53;;;6.20;99.90;;;;;;5097470;28;20107;-91
2022/01/17 04:01:12;;;;;;;10.95;2.45;;;6.20;99.90;;;;;;5097069;28;20096;-88
2022/01/17 04:03:40;;;;;;;13.55;2.75;;;6.20;99.90;;;;;;5115147;28;20023;-88
2022/01/17 04:06:05;;;;;;;13.75;2.58;;;6.20;99.90;;;;;;5079479;28;20024;-90
2022/01/17 04:08:31;;;;;;;7.75;2.25;;;6.10;99.90;;;;;;5084998;28;20077;-89
2022/01/17 04:11:04;;;;;;;11.90;3.38;;;6.10;99.90;;;;;;5115448;28;20020;-89
2022/01/17 04:13:31;;;;;;;7.55;2.20;;;6.10;99.90;;;;;;5114839;28;20429;-89
2022/01/17 04:15:57;;;;;;;14.95;2.72;;;6.00;99.90;;;;;;5103082;28;20028;-88
2022/01/17 04:18:23;;;;;;;16.15;2.65;;;6.00;99.90;;;;;;5077965;28;20506;-87
2022/01/17 04:20:49;;;;;;;10.65;2.92;;;6.00;99.90;;;;;;5094582;28;20492;-89
2022/01/17 04:23:27;;;;;;;9.35;2.88;;;6.00;99.90;;;;;;5084476;28;20027;-87
2022/01/17 04:25:53;;;;;;;13.77;3.35;;;6.00;99.90;;;;;;5115125;28;20019;-89
2022/01/17 04:28:19;;;;;;;16.90;2.78;;;6.00;99.90;;;;;;5114700;28;20501;-90
2022/01/17 04:31:16;;;;;;;10.20;3.47;;;6.00;99.90;;;;;;5108208;28;20024;-91
2022/01/17 04:33:41;;;;;;;17.67;2.47;;;5.90;99.90;;;;;;5076347;28;20444;-89
2022/01/17 04:36:08;;;;;;;22.90;3.13;;;5.90;99.90;;;;;;5094465;28;20032;-87
2022/01/17 04:38:35;;;;;;;17.52;3.25;;;5.90;99.90;;;;;;5110447;28;20115;-89
2022/01/17 04:41:04;;;;;;;20.75;3.10;;;5.80;99.90;;;;;;5094306;28;20040;-88
2022/01/17 04:46:26;;;;;;;13.88;2.55;;;5.90;99.90;;;;;;5011893;28;20034;-92
2022/01/17 04:48:52;;;;;;;13.32;2.90;;;5.80;99.90;;;;;;5096902;28;20103;-91
2022/01/17 04:51:17;;;;;;;21.90;3.75;;;5.80;99.90;;;;;;5096576;28;20111;-90
2022/01/17 04:54:30;;;;;;;13.93;2.95;;;5.80;99.90;;;;;;5096063;28;20030;-88
2022/01/17 04:57:00;;;;;;;19.38;3.28;;;5.80;99.90;;;;;;5101052;28;20075;-88
2022/01/17 04:59:25;;;;;;;24.70;3.13;;;5.80;99.90;;;;;;5081872;28;20024;-89
2022/01/17 05:01:51;;;;;;;20.23;2.92;;;5.80;99.90;;;;;;5099084;28;20240;-88
2022/01/17 05:04:19;;;;;;;22.23;3.72;;;5.80;99.90;;;;;;5102768;28;20471;-91
2022/01/17 05:06:45;;;;;;;19.75;2.95;;;5.80;99.90;;;;;;5093953;28;20483;-89
2022/01/17 05:09:13;;;;;;;14.20;2.67;;;5.70;99.90;;;;;;5093594;28;20048;-89
2022/01/17 05:11:40;;;;;;;16.65;2.95;;;5.70;99.90;;;;;;5075381;28;20456;-90
2022/01/17 05:14:07;;;;;;;25.15;4.65;;;5.70;99.90;;;;;;5075846;28;20056;-90
2022/01/17 05:16:37;;;;;;;15.23;2.83;;;5.70;99.90;;;;;;5075371;28;20399;-90
2022/01/17 05:21:54;;;;;;;23.30;3.97;;;5.70;99.90;;;;;;5094111;28;20035;-90
2022/01/17 05:24:20;;;;;;;29.08;3.97;;;5.70;99.90;;;;;;5075504;28;20032;-90
2022/01/17 05:26:47;;;;;;;12.90;2.67;;;5.70;99.90;;;;;;5093537;28;20024;-88
2022/01/17 05:29:12;;;;;;;23.48;2.67;;;5.70;99.90;;;;;;5093403;28;20023;-87
2022/01/17 05:31:42;;;;;;;9.68;2.25;;;5.70;99.90;;;;;;5094004;28;20048;-89
2022/01/17 05:34:07;;;;;;;15.55;3.92;;;5.70;99.90;;;;;;5113807;28;20166;-87
2022/01/17 05:36:33;;;;;;;23.50;2.97;;;5.70;99.90;;;;;;5113551;28;20057;-87
2022/01/17 05:38:59;;;;;;;25.85;3.05;;;5.70;99.90;;;;;;5095360;28;20027;-89
2022/01/17 05:41:24;;;;;;;19.45;3.08;;;5.70;99.90;;;;;;5077127;28;20080;-87
2022/01/17 05:43:50;;;;;;;21.10;3.08;;;5.70;99.90;;;;;;5113745;28;20050;-90
2022/01/17 05:46:16;;;;;;;20.58;2.83;;;5.70;99.90;;;;;;5094855;28;20028;-89
2022/01/17 05:48:41;;;;;;;23.50;3.38;;;5.70;99.90;;;;;;5112800;28;20082;-89
2022/01/17 05:51:12;;;;;;;20.65;2.58;;;5.70;99.90;;;;;;5113926;28;20027;-92
2022/01/17 05:53:38;;;;;;;18.13;2.72;;;5.70;99.90;;;;;;5076506;28;20051;-89
2022/01/17 05:56:04;;;;;;;22.27;3.55;;;5.70;99.90;;;;;;5092990;28;20452;-90
2022/01/17 05:58:33;;;;;;;12.00;2.60;;;5.70;99.90;;;;;;5092969;28;20020;-89
2022/01/17 06:01:00;;;;;;;17.80;3.45;;;5.80;99.90;;;;;;5092774;28;20028;-88
2022/01/17 06:03:26;;;;;;;10.40;2.28;;;5.80;99.90;;;;;;5108932;28;20024;-88
2022/01/17 06:05:53;;;;;;;17.50;2.65;;;5.80;99.90;;;;;;5095109;28;20031;-88
2022/01/17 06:08:26;;;;;;;19.08;2.20;;;5.80;99.90;;;;;;5110861;28;20020;-90
2022/01/17 06:10:52;;;;;;;12.02;2.13;;;5.70;99.90;;;;;;5092935;28;20043;-88
2022/01/17 06:13:19;;;;;;;20.35;2.65;;;5.70;99.90;;;;;;5092827;28;20016;-88
2022/01/17 06:15:44;;;;;;;14.02;2.10;;;5.70;99.90;;;;;;5092495;28;20499;-88
2022/01/17 06:18:10;;;;;;;11.43;2.03;;;5.70;99.90;;;;;;5107627;28;20020;-88
2022/01/17 06:20:40;;;;;;;17.60;2.53;;;5.70;99.90;;;;;;5105833;28;20028;-88
2022/01/17 06:23:05;;;;;;;9.30;1.98;;;5.70;99.90;;;;;;5104354;28;20030;-88
2022/01/17 06:25:31;;;;;;;12.50;1.83;;;5.70;99.90;;;;;;5094581;28;20577;-87
2022/01/17 06:27:56;;;;;;;12.25;2.20;;;5.70;99.90;;;;;;5112196;28;20541;-87
2022/01/17 06:30:22;;;;;;;10.85;1.90;;;5.70;99.90;;;;;;5112433;28;20112;-87
2022/01/17 06:32:50;;;;;;;19.33;2.65;;;5.70;99.90;;;;;;5112268;28;20038;-88
2022/01/17 06:35:16;;;;;;;14.23;2.63;;;5.70;99.90;;;;;;5112907;28;20012;-87
2022/01/17 06:37:44;;;;;;;17.60;2.17;;;5.80;99.90;;;;;;5112272;28;20047;-88
2022/01/17 06:40:12;;;;;;;10.07;1.85;;;5.80;99.90;;;;;;5106811;28;20429;-90
2022/01/17 06:42:38;;;;;;;8.55;1.55;;;5.80;99.90;;;;;;5073254;28;20024;-87
2022/01/17 06:45:05;;;;;;;14.95;3.03;;;5.80;99.90;;;;;;5097468;28;20089;-90
2022/01/17 06:47:35;;;;;;;14.27;3.17;;;5.80;99.90;;;;;;5101154;28;20028;-90
2022/01/17 06:50:04;;;;;;;13.25;2.30;;;5.80;99.90;;;;;;5092184;28;20472;-90
2022/01/17 06:52:30;;;;;;;9.25;1.85;;;5.80;99.90;;;;;;5090188;28;20314;-89
2022/01/17 06:54:56;;;;;;;10.15;2.35;;;5.80;99.90;;;;;;5073538;28;20140;-89
2022/01/17 06:57:23;;;;;;;7.78;2.20;;;5.70;99.90;;;;;;5076856;28;20466;-89
2022/01/17 06:59:49;;;;;;;10.18;2.65;;;5.70;99.90;;;;;;5074434;28;20491;-88
2022/01/17 07:02:17;;;;;;;7.90;1.77;;;5.80;99.90;;;;;;5095811;28;20074;-90
2022/01/17 07:04:43;;;;;;;5.55;1.70;;;5.80;99.90;;;;;;5094684;28;20024;-87
2022/01/17 07:07:08;;;;;;;9.23;1.77;;;5.70;99.90;;;;;;5076647;28;20090;-89
2022/01/17 07:09:36;;;;;;;8.98;1.73;;;5.80;99.90;;;;;;5082104;28;20042;-90
2022/01/17 07:12:02;;;;;;;6.60;2.35;;;5.80;99.90;;;;;;5095129;28;20120;-90
2022/01/17 07:14:29;;;;;;;6.57;1.70;;;5.80;99.90;;;;;;5101809;28;20088;-88
2022/01/17 07:16:55;;;;;;;12.68;2.05;;;5.70;99.90;;;;;;5102121;28;20042;-89
2022/01/17 07:19:20;;;;;;;8.35;1.98;;;5.80;99.90;;;;;;5099228;28;20031;-90
2022/01/17 07:21:46;;;;;;;6.13;1.45;;;5.70;99.90;;;;;;5095182;28;20028;-88
2022/01/17 07:24:12;;;;;;;6.65;1.73;;;5.70;99.90;;;;;;5107731;28;20031;-88
2022/01/17 07:26:37;;;;;;;5.75;1.52;;;5.70;99.90;;;;;;5078938;28;20032;-89
2022/01/17 07:29:08;;;;;;;6.45;1.83;;;5.60;99.90;;;;;;5109235;28;20024;-88
2022/01/17 07:31:35;;;;;;;7.10;1.73;;;5.60;99.90;;;;;;5105398;28;20028;-88
2022/01/17 07:34:00;;;;;;;5.78;2.33;;;5.60;99.90;;;;;;5095015;28;20131;-88
2022/01/17 07:36:26;;;;;;;9.70;2.88;;;5.60;99.90;;;;;;5084343;28;20463;-89
2022/01/17 07:38:52;;;;;;;8.75;1.58;;;5.60;99.90;;;;;;5082236;28;20093;-89
2022/01/17 07:41:18;;;;;;;4.03;1.42;;;5.60;99.90;;;;;;5095109;28;20077;-88
2022/01/17 07:43:44;;;;;;;11.18;1.52;;;5.60;99.90;;;;;;5094268;28;20036;-88
2022/01/17 07:46:34;;;;;;;3.03;1.25;;;5.70;99.90;;;;;;5101324;28;20030;-87
2022/01/17 07:49:10;;;;;;;3.72;1.30;;;5.70;99.90;;;;;;5099656;28;20027;-89
2022/01/17 07:51:38;;;;;;;5.15;1.60;;;5.70;99.90;;;;;;5096928;28;20031;-90
2022/01/17 07:54:05;;;;;;;4.30;1.10;;;5.80;99.90;;;;;;5104346;28;20114;-89
2022/01/17 07:56:37;;;;;;;1.77;1.15;;;5.90;99.90;;;;;;5111704;28;20106;-88
2022/01/17 07:59:04;;;;;;;2.55;0.80;;;5.80;99.90;;;;;;5100248;28;20025;-89
2022/01/17 08:01:30;;;;;;;1.35;1.10;;;5.90;99.90;;;;;;5112459;28;20028;-91
2022/01/17 08:03:57;;;;;;;8.27;1.17;;;5.90;99.90;;;;;;5099579;28;20035;-90
2022/01/17 08:06:22;;;;;;;1.75;1.10;;;6.00;99.90;;;;;;5097432;28;20132;-92
2022/01/17 08:08:48;;;;;;;0.88;0.85;;;6.00;99.90;;;;;;5100709;28;20127;-89
2022/01/17 08:11:14;;;;;;;2.22;0.80;;;6.00;99.90;;;;;;5112738;28;20023;-89
2022/01/17 08:13:40;;;;;;;3.72;1.45;;;6.00;99.90;;;;;;5094839;28;20031;-90
2022/01/17 08:16:06;;;;;;;6.75;1.38;;;6.00;99.90;;;;;;5079739;28;20472;-88
2022/01/17 08:18:32;;;;;;;3.67;1.20;;;6.10;99.90;;;;;;5094457;28;20032;-91
2022/01/17 08:20:58;;;;;;;4.25;0.80;;;6.10;99.90;;;;;;5094254;28;20056;-90
2022/01/17 08:23:24;;;;;;;2.30;1.02;;;6.10;99.90;;;;;;5093960;28;20445;-90
2022/01/17 08:25:50;;;;;;;6.13;1.10;;;6.10;99.90;;;;;;5076449;28;20024;-90
2022/01/17 08:28:16;;;;;;;2.35;0.82;;;6.10;99.90;;;;;;5093943;28;20043;-91
2022/01/17 08:30:41;;;;;;;1.25;0.82;;;6.10;99.90;;;;;;5096578;28;20056;-90
2022/01/17 08:33:08;;;;;;;3.67;1.02;;;6.10;99.90;;;;;;5113796;28;20044;-89
2022/01/17 08:35:34;;;;;;;3.05;0.90;;;6.10;99.90;;;;;;5113961;28;20027;-90
2022/01/17 08:38:00;;;;;;;8.57;0.98;;;6.20;99.90;;;;;;5105564;28;20024;-90
2022/01/17 08:40:26;;;;;;;4.68;1.00;;;6.20;99.90;;;;;;5090424;28;20118;-90
2022/01/17 08:42:51;;;;;;;3.80;0.93;;;6.20;99.90;;;;;;5083374;28;20031;-90
2022/01/17 08:45:19;;;;;;;2.25;1.13;;;6.20;99.90;;;;;;5103290;28;20032;-91
2022/01/17 08:47:57;;;;;;;0.88;0.88;;;6.30;99.90;;;;;;5103465;28;20482;-91
2022/01/17 08:50:23;;;;;;;9.85;1.15;;;6.30;99.90;;;;;;5081885;28;20126;-87
2022/01/17 08:52:49;;;;;;;2.20;1.00;;;6.40;99.90;;;;;;5087878;28;20027;-89
2022/01/17 08:55:16;;;;;;;3.92;1.40;;;6.50;99.90;;;;;;5091258;28;20031;-87
2022/01/17 08:57:42;;;;;;;4.32;1.13;;;6.60;99.90;;;;;;5102883;28;20016;-90
2022/01/17 09:00:12;;;;;;;4.75;0.77;;;6.60;99.90;;;;;;5112347;28;20459;-86
2022/01/17 09:02:39;;;;;;;6.03;1.08;;;6.70;99.90;;;;;;5109722;27;20036;-90
2022/01/17 09:05:04;;;;;;;5.80;1.33;;;6.80;99.90;;;;;;5092366;28;20024;-89
2022/01/17 09:07:30;;;;;;;5.82;2.22;;;6.80;99.90;;;;;;5094276;28;20027;-89
2022/01/17 09:09:55;;;;;;;2.45;0.95;;;6.90;99.90;;;;;;5095124;28;20437;-90
2022/01/17 09:12:21;;;;;;;3.05;0.90;;;7.00;99.90;;;;;;5094984;28;20024;-92
2022/01/17 09:14:47;;;;;;;2.72;1.25;;;6.90;99.90;;;;;;5074799;28;20058;-87
2022/01/17 09:17:12;;;;;;;4.15;0.93;;;7.00;99.90;;;;;;5092840;28;20028;-89
2022/01/17 09:19:41;;;;;;;4.55;1.23;;;7.00;99.90;;;;;;5092063;28;20070;-88
2022/01/17 09:22:10;;;;;;;8.57;1.58;;;7.00;99.90;;;;;;5091644;28;20080;-89
2022/01/17 09:24:37;;;;;;;6.50;1.20;;;7.10;99.90;;;;;;5093168;28;20032;-88
2022/01/17 09:27:05;;;;;;;2.70;1.10;;;7.10;99.90;;;;;;5093726;28;20410;-89
2022/01/17 09:29:33;;;;;;;2.42;0.93;;;7.10;99.90;;;;;;5074434;28;20032;-87
2022/01/17 09:31:59;;;;;;;7.32;1.15;;;7.10;99.90;;;;;;5092521;28;20024;-87
2022/01/17 09:34:26;;;;;;;3.38;0.93;;;7.10;99.90;;;;;;5093219;28;20036;-90
2022/01/17 09:36:52;;;;;;;5.47;1.10;;;7.10;99.90;;;;;;5074755;28;20102;-90
2022/01/17 09:39:20;;;;;;;7.47;1.40;;;7.20;99.90;;;;;;5074039;28;20028;-90
2022/01/17 09:41:46;;;;;;;3.58;1.25;;;7.20;99.90;;;;;;5069499;28;20032;-88
2022/01/17 09:44:12;;;;;;;5.47;1.00;;;7.20;99.90;;;;;;5074184;28;20024;-87
2022/01/17 09:46:43;;;;;;;1.90;1.10;;;7.20;99.90;;;;;;5092585;28;20483;-88
2022/01/17 09:49:15;;;;;;;5.03;1.20;;;7.20;99.90;;;;;;5106445;28;20038;-89
2022/01/17 09:54:29;;;;;;;4.88;1.02;;;7.20;99.90;;;;;;5092199;28;20100;-91
2022/01/17 09:56:56;;;;;;;2.50;1.02;;;7.20;99.90;;;;;;5105645;28;20035;-88
2022/01/17 09:59:22;;;;;;;6.68;2.97;;;7.20;99.90;;;;;;5073893;28;20488;-90
2022/01/17 10:01:48;;;;;;;3.28;1.00;;;7.20;99.90;;;;;;5091787;28;20044;-88
2022/01/17 10:04:16;;;;;;;2.40;1.17;;;7.20;99.90;;;;;;5074195;28;20426;-89
2022/01/17 10:06:43;;;;;;;2.78;1.30;;;7.30;99.90;;;;;;5092115;28;20118;-92
2022/01/17 10:09:21;;;;;;;5.55;1.08;;;7.30;99.90;;;;;;5091133;28;20468;-88
2022/01/17 10:12:01;;;;;;;4.22;1.67;;;7.40;99.90;;;;;;5105267;28;20051;-87
2022/01/17 10:14:30;;;;;;;2.63;1.10;;;7.30;99.90;;;;;;5092199;28;20405;-86
2022/01/17 10:16:55;;;;;;;4.10;1.00;;;7.30;99.90;;;;;;5087646;28;20023;-88
2022/01/17 10:19:24;;;;;;;2.35;0.95;;;7.30;99.90;;;;;;5095117;28;20106;-87
2022/01/17 10:21:54;;;;;;;2.00;1.15;;;7.30;99.90;;;;;;5083461;28;20440;-88
2022/01/17 10:24:27;;;;;;;1.48;1.00;;;7.30;99.90;;;;;;5093761;28;20074;-88
2022/01/17 10:35:57;;;;;;;8.00;1.52;;;7.30;99.90;;;;;;5103937;28;20161;-90
2022/01/17 10:38:24;;;;;;;4.25;1.30;;;7.30;99.90;;;;;;5095319;28;20073;-89
2022/01/17 10:41:06;;;;;;;4.55;1.33;;;7.30;99.90;;;;;;5080217;28;20055;-89
2022/01/17 10:43:38;;;;;;;3.28;0.90;;;7.30;99.90;;;;;;5078705;28;20039;-89
2022/01/17 10:46:12;;;;;;;5.90;0.95;;;7.30;99.90;;;;;;5095978;28;20020;-89
2022/01/17 10:48:41;;;;;;;8.73;1.60;;;7.30;99.90;;;;;;5077698;28;20028;-88
2022/01/17 10:51:18;;;;;;;3.70;0.98;;;7.30;99.90;;;;;;5096473;28;20017;-88
2022/01/17 10:53:50;;;;;;;4.13;1.23;;;7.30;99.90;;;;;;5078196;28;20123;-89
2022/01/17 10:56:15;;;;;;;2.45;1.08;;;7.40;99.90;;;;;;5094537;28;20065;-87
2022/01/17 10:58:46;;;;;;;3.90;2.47;;;7.40;99.90;;;;;;5098671;28;20058;-88
2022/01/17 11:01:15;;;;;;;6.05;1.10;;;7.40;99.90;;;;;;5109799;28;20734;-88
2022/01/17 11:03:42;;;;;;;6.43;1.38;;;7.40;99.90;;;;;;5111285;28;20095;-87
2022/01/17 11:06:11;;;;;;;5.93;1.25;;;7.40;99.90;;;;;;5088170;28;20028;-87
2022/01/17 11:08:39;;;;;;;3.85;1.40;;;7.40;99.90;;;;;;5095702;28;20036;-89
2022/01/17 11:11:07;;;;;;;4.75;1.42;;;7.40;99.90;;;;;;5107436;28;20043;-85
2022/01/17 11:13:38;;;;;;;3.10;1.30;;;7.40;99.90;;;;;;5092402;28;20028;-89
2022/01/17 11:16:08;;;;;;;7.43;1.63;;;7.40;99.90;;;;;;5072996;28;20383;-88
2022/01/17 11:18:36;;;;;;;7.72;1.63;;;7.40;99.90;;;;;;5092365;28;20028;-88
2022/01/17 11:21:10;;;;;;;3.45;1.35;;;7.50;99.90;;;;;;5096668;28;20027;-88
2022/01/17 11:23:37;;;;;;;4.07;1.35;;;7.50;99.90;;;;;;5096450;28;20050;-88
2022/01/17 11:26:05;;;;;;;12.60;4.30;;;7.50;99.90;;;;;;5093144;28;20023;-90
2022/01/17 11:28:36;;;;;;;4.47;1.40;;;7.50;99.90;;;;;;5076817;28;20016;-89
2022/01/17 11:31:13;;;;;;;5.45;1.83;;;7.60;99.90;;;;;;5090032;28;20031;-89
2022/01/17 11:33:40;;;;;;;4.03;1.50;;;7.50;99.90;;;;;;5112934;28;20048;-90
2022/01/17 11:36:06;;;;;;;5.40;1.73;;;7.50;99.90;;;;;;5108625;28;20035;-88
2022/01/17 11:38:46;;;;;;;9.82;3.55;;;7.50;99.90;;;;;;5104847;28;20036;-89
2022/01/17 11:41:25;;;;;;;4.03;1.27;;;7.50;99.90;;;;;;5075202;28;20074;-87
2022/01/17 11:43:55;;;;;;;5.93;1.80;;;7.60;99.90;;;;;;5103451;28;20024;-88
2022/01/17 11:46:27;;;;;;;8.52;1.55;;;7.60;99.90;;;;;;5080371;28;20020;-88
2022/01/17 11:48:58;;;;;;;6.57;1.75;;;7.60;99.90;;;;;;5109034;28;20543;-88
2022/01/17 11:51:33;;;;;;;9.20;2.13;;;7.70;99.90;;;;;;5081132;28;20028;-88
2022/01/17 11:54:09;;;;;;;9.30;2.03;;;7.70;99.90;;;;;;5075388;28;20034;-90
2022/01/17 11:56:39;;;;;;;9.57;2.20;;;7.70;99.90;;;;;;5100573;28;20038;-89
2022/01/17 11:59:27;;;;;;;11.80;2.67;;;7.70;99.90;;;;;;5109461;28;20035;-90
2022/01/17 12:02:15;;;;;;;14.80;2.90;;;7.70;99.90;;;;;;5101056;28;20034;-89
2022/01/17 12:04:41;;;;;;;19.30;2.78;;;7.70;99.90;;;;;;5102179;28;20031;-86
2022/01/17 12:07:07;;;;;;;19.88;2.88;;;7.80;99.90;;;;;;5100879;28;20391;-91
2022/01/17 12:09:35;;;;;;;13.00;2.05;;;7.80;99.90;;;;;;5076334;28;20027;-86
2022/01/17 12:12:03;;;;;;;15.00;2.70;;;7.90;99.90;;;;;;5093967;28;20492;-86
2022/01/17 12:14:54;;;;;;;23.20;3.08;;;7.90;99.90;;;;;;5094112;28;20020;-88
2022/01/17 12:17:20;;;;;;;21.20;2.90;;;7.80;99.90;;;;;;5094720;28;20099;-89
2022/01/17 12:20:04;;;;;;;18.35;3.83;;;7.90;99.90;;;;;;5094493;28;20107;-87
2022/01/17 12:22:39;;;;;;;14.10;3.20;;;7.90;99.90;;;;;;5082388;28;20034;-89
2022/01/17 12:25:24;;;;;;;14.85;3.30;;;7.90;99.90;;;;;;5099834;28;20047;-87
2022/01/17 12:28:08;;;;;;;7.80;2.22;;;7.90;99.90;;;;;;5094381;28;20484;-89
2022/01/17 12:30:41;;;;;;;15.18;2.83;;;7.90;99.90;;;;;;5100012;28;20054;-90
2022/01/17 12:33:11;;;;;;;12.23;2.17;;;7.90;99.90;;;;;;5100339;28;20115;-87
2022/01/17 12:35:46;;;;;;;20.35;2.67;;;7.90;99.90;;;;;;5113317;27;20028;-90
2022/01/17 12:41:33;;;;;;;16.52;3.10;;;7.90;99.90;;;;;;5072359;28;20047;-90
2022/01/17 12:43:59;;;;;;;8.05;2.40;;;7.90;99.90;;;;;;5093636;28;20387;-89
2022/01/17 12:46:25;;;;;;;9.85;2.35;;;7.90;99.90;;;;;;5114022;28;20031;-89
2022/01/17 12:48:52;;;;;;;10.75;2.40;;;7.90;99.90;;;;;;5093570;28;20034;-90
2022/01/17 12:51:18;;;;;;;9.18;2.05;;;7.80;99.90;;;;;;5109666;28;20081;-87
2022/01/17 12:54:08;;;;;;;8.82;1.70;;;7.80;99.90;;;;;;5114307;28;20504;-91
2022/01/17 12:56:34;;;;;;;5.45;1.80;;;7.70;99.90;;;;;;5104312;28;20052;-88
2022/01/17 12:59:01;;;;;;;5.88;1.50;;;7.70;99.90;;;;;;5113827;28;20428;-87
2022/01/17 13:01:58;;;;;;;8.18;1.45;;;7.70;99.90;;;;;;5097786;28;20407;-88
2022/01/17 13:04:24;;;;;;;10.75;3.50;;;7.60;99.90;;;;;;5082171;28;20055;-88
2022/01/17 13:06:54;;;;;;;7.53;1.55;;;7.60;99.90;;;;;;5095677;28;20062;-89
2022/01/17 13:09:24;;;;;;;9.50;2.10;;;7.50;99.90;;;;;;5093786;28;20056;-87
2022/01/17 13:11:52;;;;;;;5.97;1.73;;;7.60;99.90;;;;;;5093120;28;20085;-86
2022/01/17 13:14:25;;;;;;;10.18;2.20;;;7.40;99.90;;;;;;5104142;28;20026;-86
2022/01/17 13:16:52;;;;;;;5.30;1.88;;;7.40;99.90;;;;;;5076473;28;20064;-89
2022/01/17 13:19:19;;;;;;;8.70;1.88;;;7.30;99.90;;;;;;5075325;28;20027;-90
2022/01/17 13:21:49;;;;;;;14.93;3.50;;;7.30;99.90;;;;;;5093142;28;20111;-89
2022/01/17 13:26:56;;;;;;;10.40;2.22;;;7.10;99.90;;;;;;5106793;28;20429;-86
2022/01/17 13:30:04;;;;;;;11.45;2.95;;;7.10;99.90;;;;;;5102035;28;20031;-87
2022/01/17 13:32:49;;;;;;;5.78;2.28;;;7.00;99.90;;;;;;5094795;28;20439;-88
2022/01/17 13:35:22;;;;;;;12.85;2.53;;;7.00;99.90;;;;;;5111579;28;20141;-88
2022/01/17 13:38:05;;;;;;;6.00;2.58;;;7.00;99.90;;;;;;5100156;28;20158;-89
2022/01/17 13:40:33;;;;;;;13.68;2.83;;;7.10;99.90;;;;;;5094973;28;20036;-88
2022/01/17 13:43:08;;;;;;;11.70;2.60;;;6.90;99.90;;;;;;5077224;28;20428;-89
2022/01/17 13:45:44;;;;;;;14.93;3.05;;;6.90;99.90;;;;;;5103470;28;20031;-88